Mitchell, Canada
Current Conditions -  °F | °C
As of 5:00 PM on Sunday 25 Jan 2015 (Local Time) from CYXU Reporting Station
Broken Clouds Broken Clouds  
Wind Chill:   Ceiling: 25000
Heat Index: 14°   Visibility: 15mi
Dew Point:   Wind: 8mph
Humidity: 57%   Direction: 20°NNE
Pressure: 29.94"   Gusts: NA
Location:  43.47°N, 81.18°W
Report Text: CYXU 252200Z 02007KT 15SM FEW100 SCT180 BKN250 M10/M17 A2994 RMK AC2AC2CI3 SLP156
Loading
Personal Weather Stations






























Interactive Weather Map New forecast layout! Learn more

10-Day Weather Forecast

Advertisements
Track Severe Weather on mobile